KBDU

Boulder Municipal Airport

Boulder, Colorado, USA
METAR KBDU 191354Z AUTO 00000KT 10SM CLR 11/M05 A3028 RMK AO2
Observed Flight Rules
Oct-19 @ 13:54 UTC (14 minutes ago) Visual Flight Rules
Visibility Clouds
10 miles
  • Clear skies
Temperatures Readings
Current 11°C / 52°F
Dewpoint -5°C / 23°F
Humidity 32%
Altimeter 30.28" Hg
Pressure 1025 hPa
Elevation 1612
METAR KBDU 191354Z AUTO 00000KT 10SM CLR 11/M05 A3028 RMK AO2
Observed Flight Rules
Oct-19 @ 13:54 UTC
(14 minutes ago)
VFR
Clouds
  • Clear skies
Temperature Dewpoint
11°C / 52°F -5°C / 23°F
Humidity Altimeter Pressure
32% 30.28" Hg 1025 hPa